KBBD/BBD METAR and TAF weather

Enter ICAO airport designator
Station Type Date Time Source
KBBD METAR 2021/08/05 04:15 UTC NOAA

KBBD 050415Z AUTO 09004KT 10SM 24/16 RMK AO2 PWINO TSNO


Station Type Date Time Source
KBBD Decoded METAR 2021/08/05 04:15 UTC NOAA

Brady, Curtis Field Airport, TX, United States (KBBD) 31-10-45N 099-19-26W
Aug 05, 2021 - 12:15 AM EDT / 2021.08.05 0415 UTC
Wind: from the E (090 degrees) at 5 MPH (4 KT):0
Visibility: 10 mile(s):0
Temperature: 75 F (24 C)
Dew Point: 60 F (16 C)
Relative Humidity: 60%
ob: KBBD 050415Z AUTO 09004KT 10SM 24/16 RMK AO2 PWINO TSNO
cycle: 4

Station Type Date Time Source
KBBD TAF 2021/08/04 18:22 UTC NOAA

TAF KBBD 041720Z 0418/0518 09006KT P6SM SCT070
FM050000 VRB05KT P6SM SCT250

Example: see airport list